Time;durP1;ratioP1;P1;durP2;ratioP2;P2;SDS_P1;SDS_P2;PMS_P1;PMS_P2;Temp;Humidity;BMP_temperature;BMP_pressure;BME280_temperature;BME280_humidity;BME280_pressure;Samples;Min_cycle;Max_cycle;Signal;HPM_P1;HPM_P2
2020/12/22 00:00:05;;;;;;;8.70;5.67;;;;;;;-144.99;100.00;52521.47;5084715;28;20212;-70
2020/12/22 00:02:31;;;;;;;7.00;5.33;;;;;;;-144.99;100.00;52541.84;5077810;28;20281;-72
2020/12/22 00:04:57;;;;;;;7.33;5.00;;;;;;;-144.99;100.00;52545.94;5091840;28;20231;-70
2020/12/22 00:07:23;;;;;;;6.80;5.00;;;;;;;-144.99;100.00;52545.94;5091691;28;20215;-72
2020/12/22 00:09:49;;;;;;;6.60;5.40;;;;;;;-144.99;100.00;52545.94;5091372;28;20633;-72
2020/12/22 00:12:16;;;;;;;6.30;5.00;;;;;;;-144.99;100.00;52517.41;5091358;28;20220;-73
2020/12/22 00:14:42;;;;;;;5.53;4.30;;;;;;;-144.99;100.00;52558.16;5090923;28;20226;-72
2020/12/22 00:17:09;;;;;;;10.27;4.67;;;;;;;-144.99;100.00;52521.47;5072681;28;20208;-71
2020/12/22 00:19:35;;;;;;;6.90;5.07;;;;;;;-144.99;100.00;52564.28;5071072;28;20284;-71
2020/12/22 00:22:01;;;;;;;9.10;5.97;;;;;;;-144.99;100.00;52558.16;5090025;28;20311;-71
2020/12/22 00:24:28;;;;;;;6.10;4.50;;;;;;;-144.99;100.00;52529.63;5091729;28;20212;-72
2020/12/22 00:26:54;;;;;;;6.83;4.73;;;;;;;-144.99;100.00;52531.66;5091432;28;20208;-71
2020/12/22 00:29:20;;;;;;;5.20;3.73;;;;;;;-144.99;100.00;52556.13;5091082;28;20239;-71
2020/12/22 00:31:47;;;;;;;5.80;4.40;;;;;;;-144.99;100.00;52501.09;5071526;28;20244;-72
2020/12/22 00:34:14;;;;;;;7.17;5.13;;;;;;;-144.99;100.00;52509.25;5083656;28;20204;-72
2020/12/22 00:36:40;;;;;;;6.17;4.87;;;;;;;-144.99;100.00;52476.63;5091444;28;20264;-71
2020/12/22 00:39:06;;;;;;;9.40;5.40;;;;;;;-144.99;100.00;52554.09;5091120;28;20282;-73
2020/12/22 00:41:32;;;;;;;6.60;4.50;;;;;;;-144.99;100.00;52511.28;5091214;28;20282;-73
2020/12/22 00:43:58;;;;;;;7.03;5.43;;;;;;;-144.99;100.00;52537.78;5090848;28;20375;-73
2020/12/22 00:46:24;;;;;;;5.53;3.90;;;;;;;-144.99;100.00;52550.00;5090617;28;20379;-71
2020/12/22 00:48:51;;;;;;;7.43;4.87;;;;;;;-144.99;100.00;52513.31;5081224;28;20259;-71
2020/12/22 00:51:21;;;;;;;6.57;5.10;;;;;;;-144.99;100.00;52513.31;5079622;28;20201;-72
2020/12/22 00:53:47;;;;;;;6.00;4.57;;;;;;;-144.99;100.00;52521.47;5092723;28;20624;-72
2020/12/22 00:56:14;;;;;;;7.07;4.57;;;;;;;-144.99;100.00;52482.75;5092614;28;20240;-72
2020/12/22 00:58:40;;;;;;;5.10;3.70;;;;;;;-144.99;100.00;52562.25;5091753;28;20294;-72
2020/12/22 01:01:06;;;;;;;6.17;3.90;;;;;;;-144.99;100.00;52497.00;5091836;28;20253;-72
2020/12/22 01:03:33;;;;;;;5.67;4.77;;;;;;;-144.99;100.00;52537.78;5076232;28;20638;-72
2020/12/22 01:05:59;;;;;;;6.37;4.00;;;;;;;-144.99;100.00;52533.69;5078891;28;20262;-70
2020/12/22 01:08:26;;;;;;;5.27;3.80;;;;;;;-144.99;100.00;52517.41;5091115;28;20282;-71
2020/12/22 01:10:52;;;;;;;5.30;4.40;;;;;;;-144.99;100.00;52497.00;5091147;28;20283;-71
2020/12/22 01:13:18;;;;;;;5.40;4.13;;;;;;;-144.99;100.00;52525.56;5090001;28;20323;-71
2020/12/22 01:15:45;;;;;;;7.37;4.57;;;;;;;-144.99;100.00;52517.41;5083344;28;20317;-71
2020/12/22 01:18:11;;;;;;;5.03;3.30;;;;;;;-144.99;100.00;52562.25;5070438;28;20301;-71
2020/12/22 01:20:37;;;;;;;5.17;4.13;;;;;;;-144.99;100.00;52509.25;5077634;28;20211;-71
2020/12/22 01:23:03;;;;;;;6.77;3.40;;;;;;;-144.99;100.00;52492.94;5090661;28;20306;-71
2020/12/22 01:25:30;;;;;;;5.63;3.53;;;;;;;-144.99;100.00;52529.63;5090447;28;20235;-72
2020/12/22 01:27:56;;;;;;;5.57;3.73;;;;;;;-144.99;100.00;52501.09;5090614;28;20527;-72
2020/12/22 01:30:22;;;;;;;5.93;4.13;;;;;;;-144.99;100.00;52517.41;5090656;28;20316;-71
2020/12/22 01:32:50;;;;;;;5.00;3.53;;;;;;;-144.99;100.00;52533.69;5090205;28;20311;-72
2020/12/22 01:35:16;;;;;;;4.60;3.57;;;;;;;-144.99;100.00;52464.41;5090791;28;20673;-71
2020/12/22 01:37:42;;;;;;;5.43;3.13;;;;;;;-144.99;100.00;52507.19;5093167;28;20269;-72
2020/12/22 01:40:08;;;;;;;3.40;2.70;;;;;;;-144.99;100.00;52509.25;5092191;28;20228;-72
2020/12/22 01:42:35;;;;;;;5.97;3.60;;;;;;;-144.99;100.00;52517.41;5089999;28;20265;-70
2020/12/22 01:45:01;;;;;;;4.93;2.80;;;;;;;-144.99;100.00;52521.47;5090988;28;20235;-71
2020/12/22 01:47:28;;;;;;;3.97;2.70;;;;;;;-144.99;100.00;52501.09;5090458;28;20200;-71
2020/12/22 01:49:55;;;;;;;4.07;2.50;;;;;;;-144.99;100.00;52541.84;5080149;28;20208;-71
2020/12/22 01:52:21;;;;;;;4.10;2.90;;;;;;;-144.99;100.00;52497.00;5090492;28;20228;-72
2020/12/22 01:54:48;;;;;;;3.87;2.77;;;;;;;-144.99;100.00;52509.25;5089922;28;20283;-72
2020/12/22 01:57:14;;;;;;;3.93;2.60;;;;;;;-144.99;100.00;52521.47;5070335;28;20295;-72
2020/12/22 01:59:41;;;;;;;5.73;2.90;;;;;;;-144.99;100.00;52515.34;5079353;28;20196;-72
2020/12/22 02:02:08;;;;;;;4.00;3.13;;;;;;;-144.99;100.00;52525.56;5089942;28;20231;-72
2020/12/22 02:04:36;;;;;;;3.47;2.37;;;;;;;-144.99;100.00;52480.72;5089175;28;20239;-72
2020/12/22 02:07:02;;;;;;;3.63;2.47;;;;;;;-144.99;100.00;52484.78;5092663;28;20200;-72
2020/12/22 02:09:28;;;;;;;4.07;2.83;;;;;;;-144.99;100.00;52486.81;5093602;28;20580;-71
2020/12/22 02:11:54;;;;;;;4.23;3.30;;;;;;;-144.99;100.00;52562.25;5088724;28;20802;-71
2020/12/22 02:14:20;;;;;;;4.70;3.00;;;;;;;-144.99;100.00;52521.47;5089575;28;20246;-71
2020/12/22 02:16:47;;;;;;;5.53;2.37;;;;;;;-144.99;100.00;52505.16;5089609;28;20299;-72
2020/12/22 02:19:14;;;;;;;3.83;2.30;;;;;;;-144.99;100.00;52472.56;5086827;28;20512;-72
2020/12/22 02:21:41;;;;;;;3.30;2.60;;;;;;;-144.99;100.00;52541.84;5074137;28;20228;-71
2020/12/22 02:24:07;;;;;;;4.47;2.97;;;;;;;-144.99;100.00;52476.63;5074177;28;20243;-71
2020/12/22 02:26:33;;;;;;;4.13;2.80;;;;;;;-144.99;100.00;52492.94;5073510;28;20296;-70
2020/12/22 02:28:59;;;;;;;4.17;3.00;;;;;;;-144.99;100.00;52488.84;5073069;28;20288;-70
2020/12/22 02:31:26;;;;;;;3.80;2.30;;;;;;;-144.99;100.00;52554.09;5074024;28;20311;-72
2020/12/22 02:33:53;;;;;;;4.53;2.83;;;;;;;-144.99;100.00;52503.13;5072292;28;20224;-72
2020/12/22 02:36:19;;;;;;;5.73;2.47;;;;;;;-144.99;100.00;52533.69;5073175;28;20721;-72
2020/12/22 02:38:46;;;;;;;5.17;2.83;;;;;;;-144.99;100.00;52505.16;5072500;28;20646;-72
2020/12/22 02:41:13;;;;;;;5.80;2.80;;;;;;;-144.99;100.00;52482.75;5072773;28;20205;-72
2020/12/22 02:43:39;;;;;;;4.77;2.23;;;;;;;-144.99;100.00;52509.25;5073078;28;20212;-72
2020/12/22 02:46:05;;;;;;;2.60;2.10;;;;;;;-144.99;100.00;52513.31;5072447;28;20209;-72
2020/12/22 02:48:32;;;;;;;2.67;2.43;;;;;;;-144.99;100.00;52505.16;5071935;28;20339;-72
2020/12/22 02:50:58;;;;;;;2.93;2.43;;;;;;;-144.99;100.00;52480.72;5086145;28;20205;-72
2020/12/22 02:53:24;;;;;;;3.27;2.50;;;;;;;-144.99;100.00;52511.28;5084040;28;20277;-72
2020/12/22 02:55:51;;;;;;;4.87;2.90;;;;;;;-144.99;100.00;52525.56;5084973;28;20639;-72
2020/12/22 02:58:17;;;;;;;2.30;1.73;;;;;;;-144.99;100.00;52550.00;5084436;28;20200;-72
2020/12/22 03:00:43;;;;;;;2.10;1.53;;;;;;;-144.99;100.00;52509.25;5092488;28;20279;-71
2020/12/22 03:03:10;;;;;;;2.57;1.80;;;;;;;-144.99;100.00;52488.84;5092879;28;20788;-71
2020/12/22 03:05:36;;;;;;;3.57;1.90;;;;;;;-144.99;100.00;52460.31;5093267;28;20813;-72
2020/12/22 03:08:03;;;;;;;3.03;2.47;;;;;;;-144.99;100.00;52527.59;5080218;28;20208;-73
2020/12/22 03:10:29;;;;;;;1.70;1.47;;;;;;;-144.99;100.00;52527.59;5079167;28;20441;-72
2020/12/22 03:12:56;;;;;;;2.93;2.17;;;;;;;-144.99;100.00;52497.00;5092457;28;20240;-72
2020/12/22 03:15:22;;;;;;;3.03;2.30;;;;;;;-144.99;100.00;52484.78;5084671;28;20272;-71
2020/12/22 03:17:49;;;;;;;2.23;1.70;;;;;;;-144.99;100.00;52525.56;5073268;28;20239;-71
2020/12/22 03:20:15;;;;;;;2.73;1.90;;;;;;;-144.99;100.00;52529.63;5078289;28;20231;-71
2020/12/22 03:22:42;;;;;;;5.70;2.20;;;;;;;-144.99;100.00;52511.28;5092788;28;20255;-71
2020/12/22 03:25:09;;;;;;;2.70;1.80;;;;;;;-144.99;100.00;52501.09;5091846;28;20219;-71
2020/12/22 03:27:36;;;;;;;4.50;2.97;;;;;;;-144.99;100.00;52501.09;5092342;28;20290;-71
2020/12/22 03:30:04;;;;;;;4.47;2.07;;;;;;;-144.99;100.00;52480.72;5092329;28;20200;-71
2020/12/22 03:32:31;;;;;;;4.07;1.73;;;;;;;-144.99;100.00;52507.19;5092639;28;20235;-71
2020/12/22 03:34:57;;;;;;;3.43;2.40;;;;;;;-144.99;100.00;52470.50;5093034;28;20212;-72
2020/12/22 03:37:23;;;;;;;3.03;2.03;;;;;;;-144.99;100.00;52513.31;5093230;28;20216;-72
2020/12/22 03:39:51;;;;;;;3.03;2.13;;;;;;;-144.99;100.00;52501.09;5086558;28;20716;-71
2020/12/22 03:42:17;;;;;;;1.83;1.53;;;;;;;-144.99;100.00;52470.50;5072477;28;20217;-72
2020/12/22 03:44:44;;;;;;;3.10;1.70;;;;;;;-144.99;100.00;52488.84;5072012;28;20228;-72
2020/12/22 03:47:12;;;;;;;2.60;1.57;;;;;;;-144.99;100.00;52480.72;5072318;28;20614;-72
2020/12/22 03:49:38;;;;;;;2.37;1.80;;;;;;;-144.99;100.00;52501.09;5078734;28;20283;-72
2020/12/22 03:52:04;;;;;;;2.97;1.87;;;;;;;-144.99;100.00;52460.31;5092102;28;20644;-71
2020/12/22 03:54:31;;;;;;;2.57;1.57;;;;;;;-144.99;100.00;52525.56;5092162;28;20272;-71
2020/12/22 03:56:57;;;;;;;3.10;2.43;;;;;;;-144.99;100.00;52488.84;5074578;28;20232;-72
2020/12/22 03:59:24;;;;;;;1.93;1.47;;;;;;;-144.99;100.00;52505.16;5071323;28;20428;-71
2020/12/22 04:01:51;;;;;;;3.53;2.03;;;;;;;-144.99;100.00;52511.28;5071912;28;20237;-72
2020/12/22 04:04:22;;;;;;;2.30;1.50;;;;;;;-144.99;100.00;52517.41;5071367;28;20200;-70
2020/12/22 04:06:49;;;;;;;2.67;1.53;;;;;;;-144.99;100.00;52472.56;5071048;28;20251;-70
2020/12/22 04:09:15;;;;;;;2.00;1.80;;;;;;;-144.99;100.00;52521.47;5070930;28;20287;-71
2020/12/22 04:11:41;;;;;;;1.73;1.37;;;;;;;-144.99;100.00;52497.00;5070843;28;20308;-71
2020/12/22 04:14:08;;;;;;;1.70;1.50;;;;;;;-144.99;100.00;52456.25;5077400;28;20327;-71
2020/12/22 04:16:34;;;;;;;2.50;1.47;;;;;;;-144.99;100.00;52505.16;5077970;28;20208;-70
2020/12/22 04:19:00;;;;;;;2.00;1.47;;;;;;;-144.99;100.00;52492.94;5091133;28;20200;-70
2020/12/22 04:21:28;;;;;;;1.60;1.40;;;;;;;-144.99;100.00;52468.47;5091218;28;20643;-72
2020/12/22 04:23:54;;;;;;;2.17;1.47;;;;;;;-144.99;100.00;52484.78;5091623;28;20307;-71
2020/12/22 04:26:22;;;;;;;1.90;1.20;;;;;;;-144.99;100.00;52492.94;5090736;28;20737;-71
2020/12/22 04:28:48;;;;;;;2.50;1.57;;;;;;;-144.99;100.00;52448.09;5090726;28;20280;-71
2020/12/22 04:31:15;;;;;;;1.53;1.33;;;;;;;-144.99;100.00;52505.16;5090821;28;20277;-71
2020/12/22 04:33:41;;;;;;;1.40;1.30;;;;;;;-144.99;100.00;52511.28;5090579;28;20212;-70
2020/12/22 04:36:07;;;;;;;1.77;1.43;;;;;;;-144.99;100.00;52486.81;5090924;28;20242;-70
2020/12/22 04:38:35;;;;;;;1.40;1.20;;;;;;;-144.99;100.00;52503.13;5090995;28;20258;-70
2020/12/22 04:41:02;;;;;;;1.33;1.13;;;;;;;-144.99;100.00;52505.16;5090518;28;20216;-70
2020/12/22 04:43:30;;;;;;;2.10;1.40;;;;;;;-144.99;100.00;52501.09;5090987;28;20230;-70
2020/12/22 04:46:03;;;;;;;1.20;1.10;;;;;;;-144.99;100.00;52488.84;5090982;28;20218;-70
2020/12/22 04:48:33;;;;;;;1.03;0.97;;;;;;;-144.99;100.00;52499.06;5082692;28;20200;-70
2020/12/22 04:51:01;;;;;;;2.47;1.83;;;;;;;-144.99;100.00;52460.31;5089104;28;20266;-70
2020/12/22 04:53:31;;;;;;;1.97;1.33;;;;;;;-144.99;100.00;52507.19;5090635;28;20258;-70
2020/12/22 04:55:58;;;;;;;1.40;1.23;;;;;;;-144.99;100.00;52505.16;5092662;28;20199;-70
2020/12/22 04:58:27;;;;;;;1.90;1.23;;;;;;;-144.99;100.00;52505.16;5090954;28;20211;-70
2020/12/22 05:00:53;;;;;;;1.03;0.83;;;;;;;-144.99;100.00;52468.47;5091264;28;20299;-70
2020/12/22 05:03:21;;;;;;;1.53;1.23;;;;;;;-144.99;100.00;52505.16;5090152;28;20315;-71
2020/12/22 05:05:47;;;;;;;1.87;1.37;;;;;;;-144.99;100.00;52472.56;5093592;28;20286;-71
2020/12/22 05:08:14;;;;;;;1.20;0.63;;;;;;;-144.99;100.00;52529.63;5112484;28;20194;-71
2020/12/22 05:10:41;;;;;;;1.10;0.80;;;;;;;-144.99;100.00;52472.56;5101249;28;20192;-73
2020/12/22 05:13:09;;;;;;;0.83;0.77;;;;;;;-144.99;100.00;52484.78;5113327;28;20219;-72
2020/12/22 05:15:35;;;;;;;1.63;1.03;;;;;;;-144.99;100.00;52464.41;5104680;28;20205;-72
2020/12/22 05:18:02;;;;;;;1.83;1.07;;;;;;;-144.99;100.00;52519.44;5091024;28;20275;-72
2020/12/22 05:20:28;;;;;;;1.17;0.90;;;;;;;-144.99;100.00;52499.06;5096701;28;20249;-72
2020/12/22 05:22:55;;;;;;;1.93;1.03;;;;;;;-144.99;100.00;52476.63;5111596;28;20220;-72
2020/12/22 05:25:22;;;;;;;1.13;1.03;;;;;;;-144.99;100.00;52480.72;5112198;28;20189;-72
2020/12/22 05:27:51;;;;;;;2.30;1.13;;;;;;;-144.99;100.00;52480.72;5111814;28;20214;-71
2020/12/22 05:30:19;;;;;;;1.47;1.33;;;;;;;-144.99;100.00;52456.25;5111913;28;20239;-71
2020/12/22 05:32:49;;;;;;;7.17;2.43;;;;;;;-144.99;100.00;52513.31;5112600;28;20445;-72
2020/12/22 05:35:15;;;;;;;1.53;1.17;;;;;;;-144.99;100.00;52456.25;5112870;28;20188;-71
2020/12/22 05:37:41;;;;;;;3.80;1.97;;;;;;;-144.99;100.00;52492.94;5113097;28;20231;-72
2020/12/22 05:40:09;;;;;;;2.60;2.10;;;;;;;-144.99;100.00;52499.06;5107135;28;20258;-72
2020/12/22 05:42:36;;;;;;;3.57;2.30;;;;;;;-144.99;100.00;52470.50;5111598;28;20259;-72
2020/12/22 05:45:04;;;;;;;5.20;2.90;;;;;;;-144.99;100.00;52484.78;5111389;28;20204;-72
2020/12/22 05:47:32;;;;;;;3.93;3.13;;;;;;;-144.99;100.00;52492.94;5111352;28;20242;-72
2020/12/22 05:49:59;;;;;;;4.07;3.43;;;;;;;-144.99;100.00;52456.25;5110037;28;20208;-72
2020/12/22 05:52:27;;;;;;;5.70;3.80;;;;;;;-144.99;100.00;52472.56;5103598;28;20238;-71
2020/12/22 05:54:55;;;;;;;7.97;3.70;;;;;;;-144.99;100.00;52466.44;5096339;28;20236;-71
2020/12/22 05:57:22;;;;;;;5.97;4.47;;;;;;;-144.99;100.00;52480.72;5070518;28;20239;-71
2020/12/22 05:59:49;;;;;;;4.20;3.53;;;;;;;-144.99;100.00;52444.03;5070204;28;20303;-71
2020/12/22 06:02:26;;;;;;;5.27;4.77;;;;;;;-144.99;100.00;52450.13;5070308;28;20578;-72
2020/12/22 06:04:55;;;;;;;9.77;4.33;;;;;;;-144.99;100.00;52464.41;5079181;28;20584;-71
2020/12/22 06:07:21;;;;;;;5.57;4.37;;;;;;;-144.99;100.00;52492.94;5076840;28;20275;-72
2020/12/22 06:09:47;;;;;;;7.37;5.37;;;;;;;-144.99;100.00;52509.25;5089037;28;20663;-71
2020/12/22 06:12:14;;;;;;;5.37;4.73;;;;;;;-144.99;100.00;52480.72;5090975;28;20219;-71
2020/12/22 06:14:43;;;;;;;6.50;5.00;;;;;;;-144.99;100.00;52468.47;5097798;28;20228;-71
2020/12/22 06:17:11;;;;;;;6.93;5.10;;;;;;;-144.99;100.00;52484.78;5071436;28;20224;-71
2020/12/22 06:19:38;;;;;;;6.30;5.07;;;;;;;-144.99;100.00;52476.63;5069543;28;20261;-72
2020/12/22 06:22:07;;;;;;;5.30;3.43;;;;;;;-144.99;100.00;52486.81;5087931;28;20251;-72
2020/12/22 06:24:33;;;;;;;5.00;3.63;;;;;;;-144.99;100.00;52419.56;5090748;28;20299;-71
2020/12/22 06:27:00;;;;;;;6.23;4.43;;;;;;;-144.99;100.00;52482.75;5090920;28;20222;-72
2020/12/22 06:29:27;;;;;;;5.87;4.80;;;;;;;-144.99;100.00;52460.31;5090489;28;20218;-71
2020/12/22 06:31:53;;;;;;;4.60;3.43;;;;;;;-144.99;100.00;52456.25;5091517;28;20244;-72
2020/12/22 06:34:26;;;;;;;6.43;3.00;;;;;;;-144.99;100.00;52472.56;5090680;28;20247;-72
2020/12/22 06:37:00;;;;;;;3.83;3.27;;;;;;;-144.99;100.00;52480.72;5089150;28;20852;-72
2020/12/22 06:39:43;;;;;;;4.90;3.10;;;;;;;-144.99;100.00;52472.56;5089219;28;20228;-71
2020/12/22 06:42:11;;;;;;;2.33;1.53;;;;;;;-144.99;100.00;52423.63;5089109;28;20273;-71
2020/12/22 06:44:37;;;;;;;1.87;1.63;;;;;;;-144.99;100.00;52435.88;5088527;28;20200;-71
2020/12/22 06:47:05;;;;;;;1.80;1.33;;;;;;;-144.99;100.00;52501.09;5088549;28;20265;-72
2020/12/22 06:49:49;;;;;;;4.33;1.43;;;;;;;-144.99;100.00;52509.25;5076843;28;20613;-72
2020/12/22 06:52:33;;;;;;;1.47;1.10;;;;;;;-144.99;100.00;52472.56;5090320;28;20232;-72
2020/12/22 06:55:00;;;;;;;4.57;1.50;;;;;;;-144.99;100.00;52452.16;5092403;28;20235;-71
2020/12/22 06:57:47;;;;;;;1.67;1.43;;;;;;;-144.99;100.00;52480.72;5072837;28;20409;-72
2020/12/22 07:00:37;;;;;;;2.07;1.63;;;;;;;-144.99;100.00;52501.09;5088264;28;20191;-72
2020/12/22 07:03:11;;;;;;;5.07;1.70;;;;;;;-144.99;100.00;52444.03;5093499;28;20220;-73
2020/12/22 07:05:38;;;;;;;1.30;0.80;;;;;;;-144.99;100.00;52488.84;5092607;28;20283;-72
2020/12/22 07:08:05;;;;;;;2.20;1.30;;;;;;;-144.99;100.00;52464.41;5091999;28;20235;-72
2020/12/22 07:10:37;;;;;;;1.93;1.30;;;;;;;-144.99;100.00;52431.78;5091535;28;20265;-71
2020/12/22 07:13:07;;;;;;;2.00;1.10;;;;;;;-144.99;100.00;52462.34;5091339;28;20255;-72
2020/12/22 07:15:34;;;;;;;1.70;1.30;;;;;;;-144.99;100.00;52466.44;5086200;28;20204;-72
2020/12/22 07:18:10;;;;;;;4.37;2.43;;;;;;;-144.99;100.00;52464.41;5071624;28;20287;-71
2020/12/22 07:20:39;;;;;;;5.23;1.27;;;;;;;-144.99;100.00;52499.06;5078102;28;20669;-71
2020/12/22 07:23:05;;;;;;;1.70;1.23;;;;;;;-144.99;100.00;52488.84;5091469;28;20307;-72
2020/12/22 07:25:33;;;;;;;1.00;0.77;;;;;;;-144.99;100.00;52439.94;5091446;28;20290;-71
2020/12/22 07:28:01;;;;;;;1.13;0.73;;;;;;;-144.99;100.00;52466.44;5091519;28;20239;-70
2020/12/22 07:30:27;;;;;;;1.23;0.93;;;;;;;-144.99;100.00;52456.25;5091656;28;20223;-70
2020/12/22 07:32:59;;;;;;;0.80;0.67;;;;;;;-144.99;100.00;52478.66;5092638;28;20698;-72
2020/12/22 07:35:25;;;;;;;3.87;2.23;;;;;;;-144.99;100.00;52494.97;5092359;28;20284;-72
2020/12/22 07:37:51;;;;;;;3.83;2.50;;;;;;;-144.99;100.00;52456.25;5091755;28;20258;-72
2020/12/22 07:40:17;;;;;;;2.63;1.83;;;;;;;-144.99;100.00;52486.81;5091528;28;20242;-72
2020/12/22 07:42:44;;;;;;;4.07;1.77;;;;;;;-144.99;100.00;52439.94;5090715;28;20842;-73
2020/12/22 07:45:11;;;;;;;2.03;1.50;;;;;;;-144.99;100.00;52458.28;5091918;28;20287;-73
2020/12/22 07:47:37;;;;;;;2.30;1.70;;;;;;;-144.99;100.00;52464.41;5090714;28;20232;-70
2020/12/22 07:50:13;;;;;;;2.53;2.33;;;;;;;-144.99;100.00;52460.31;5081037;28;20215;-72
2020/12/22 07:52:40;;;;;;;1.37;1.20;;;;;;;-144.99;100.00;52480.72;5091950;28;20231;-73
2020/12/22 07:55:07;;;;;;;1.90;1.43;;;;;;;-144.99;100.00;52439.94;5090705;28;20238;-72
2020/12/22 07:57:36;;;;;;;2.17;1.43;;;;;;;-144.99;100.00;52476.63;5070529;28;20205;-72
2020/12/22 08:00:05;;;;;;;2.73;1.67;;;;;;;-144.99;100.00;52492.94;5070432;28;20754;-76
2020/12/22 08:02:32;;;;;;;1.93;1.73;;;;;;;-144.99;100.00;52480.72;5091494;28;20931;-76
2020/12/22 08:05:07;;;;;;;1.40;1.20;;;;;;;-144.99;100.00;52480.72;5089545;28;20610;-75
2020/12/22 08:07:33;;;;;;;1.70;1.13;;;;;;;-144.99;100.00;52439.94;5090688;28;20730;-75
2020/12/22 08:10:07;;;;;;;1.93;1.40;;;;;;;-144.99;100.00;52460.31;5091129;28;20302;-74
2020/12/22 08:12:33;;;;;;;2.17;1.33;;;;;;;-144.99;100.00;52446.06;5090216;28;20323;-74
2020/12/22 08:15:00;;;;;;;1.73;1.53;;;;;;;-144.99;100.00;52523.50;5089532;28;20231;-75
2020/12/22 08:17:28;;;;;;;1.77;1.47;;;;;;;-144.99;100.00;52460.31;5070283;28;20663;-75
2020/12/22 08:19:55;;;;;;;1.83;1.10;;;;;;;-144.99;100.00;52472.56;5072489;28;20203;-75
2020/12/22 08:22:21;;;;;;;1.30;1.20;;;;;;;-144.99;100.00;52448.09;5090584;28;20216;-76
2020/12/22 08:24:48;;;;;;;3.03;1.20;;;;;;;-144.99;100.00;52492.94;5091044;28;20293;-74
2020/12/22 08:27:14;;;;;;;2.27;1.00;;;;;;;-144.99;100.00;52460.31;5082591;28;20228;-75
2020/12/22 08:29:42;;;;;;;2.97;1.47;;;;;;;-144.99;100.00;52456.25;5069915;28;20259;-75
2020/12/22 08:32:08;;;;;;;2.27;2.07;;;;;;;-144.99;100.00;52472.56;5070296;28;20220;-76
2020/12/22 08:34:35;;;;;;;1.23;1.07;;;;;;;-144.99;100.00;52476.63;5070276;28;20236;-74
2020/12/22 08:37:08;;;;;;;4.63;2.67;;;;;;;-144.99;100.00;52439.94;5070559;28;20265;-75
2020/12/22 08:39:39;;;;;;;2.43;1.57;;;;;;;-144.99;100.00;52460.31;5070520;28;20205;-74
2020/12/22 08:42:08;;;;;;;3.23;1.97;;;;;;;-144.99;100.00;52452.16;5080728;28;20655;-75
2020/12/22 08:44:34;;;;;;;2.70;1.83;;;;;;;-144.99;100.00;52433.81;5090269;28;20238;-75
2020/12/22 08:47:09;;;;;;;5.70;1.47;;;;;;;-144.99;100.00;52446.06;5090491;28;20231;-75
2020/12/22 08:49:37;;;;;;;5.10;3.57;;;;;;;-144.99;100.00;52468.47;5078670;28;20258;-73
2020/12/22 08:52:09;;;;;;;3.00;1.83;;;;;;;-144.99;100.00;52456.25;5090878;28;20296;-75
2020/12/22 08:54:35;;;;;;;2.57;1.93;;;;;;;-144.99;100.00;52525.56;5090405;28;20311;-75
2020/12/22 08:57:08;;;;;;;2.53;1.93;;;;;;;-144.99;100.00;52472.56;5088042;28;20228;-74
2020/12/22 08:59:34;;;;;;;2.83;2.13;;;;;;;-144.99;100.00;52458.28;5092496;28;20642;-74
2020/12/22 09:02:00;;;;;;;3.43;2.20;;;;;;;-144.99;100.00;52474.59;5092583;28;20303;-73
2020/12/22 09:04:29;;;;;;;2.37;1.77;;;;;;;-144.99;100.00;52444.03;5089803;28;20680;-74
2020/12/22 09:06:57;;;;;;;2.70;2.13;;;;;;;-144.99;100.00;52488.84;5091310;28;20240;-74
2020/12/22 09:09:27;;;;;;;2.60;2.03;;;;;;;-144.99;100.00;52439.94;5080334;28;20197;-74
2020/12/22 09:12:03;;;;;;;2.37;1.83;;;;;;;-144.99;100.00;52474.59;5088414;28;20310;-73
2020/12/22 09:14:38;;;;;;;3.00;1.87;;;;;;;-144.99;100.00;52444.03;5088005;28;20212;-74
2020/12/22 09:17:04;;;;;;;2.13;1.53;;;;;;;-144.99;100.00;52521.47;5076258;28;20222;-75
2020/12/22 09:19:42;;;;;;;2.87;1.97;;;;;;;-144.99;100.00;52468.47;5080344;28;20192;-75
2020/12/22 09:22:09;;;;;;;2.77;1.80;;;;;;;-144.99;100.00;52468.47;5088653;28;20731;-74
2020/12/22 09:24:35;;;;;;;1.67;1.30;;;;;;;-144.99;100.00;52456.25;5089237;28;20215;-74
2020/12/22 09:27:05;;;;;;;2.23;1.67;;;;;;;-144.99;100.00;52488.84;5089918;28;20286;-74
2020/12/22 09:29:32;;;;;;;3.87;2.17;;;;;;;-144.99;100.00;52468.47;5075123;28;20284;-73
2020/12/22 09:31:59;;;;;;;3.27;2.53;;;;;;;-144.99;100.00;52466.44;5069007;28;20298;-74
2020/12/22 09:34:27;;;;;;;2.10;1.90;;;;;;;-144.99;100.00;52470.50;5068148;28;20335;-74
2020/12/22 09:36:55;;;;;;;2.67;2.23;;;;;;;-144.99;100.00;52468.47;5068822;28;20700;-76
2020/12/22 09:39:24;;;;;;;3.47;2.67;;;;;;;-144.99;100.00;52476.63;5068910;28;20204;-75
2020/12/22 09:41:51;;;;;;;2.73;1.87;;;;;;;-144.99;100.00;52476.63;5068862;28;20627;-76
2020/12/22 09:44:17;;;;;;;3.43;2.07;;;;;;;-144.99;100.00;52468.47;5071373;28;20696;-78
2020/12/22 09:46:46;;;;;;;2.23;1.53;;;;;;;-144.99;100.00;52492.94;5089870;28;20293;-75
2020/12/22 09:49:13;;;;;;;3.27;1.93;;;;;;;-144.99;100.00;52456.25;5078942;28;20200;-74
2020/12/22 09:51:39;;;;;;;1.83;1.63;;;;;;;-144.99;100.00;52456.25;5087273;28;20365;-75
2020/12/22 09:54:05;;;;;;;1.50;1.37;;;;;;;-144.99;100.00;52439.94;5086164;28;20224;-75
2020/12/22 09:56:32;;;;;;;2.10;1.47;;;;;;;-144.99;100.00;52480.72;5075821;28;20606;-74
2020/12/22 09:58:58;;;;;;;1.33;1.00;;;;;;;-144.99;100.00;52446.06;5083850;28;20200;-75
2020/12/22 10:01:26;;;;;;;1.57;1.10;;;;;;;-144.99;100.00;52448.09;5088614;28;20650;-75
2020/12/22 10:03:52;;;;;;;1.00;0.83;;;;;;;-144.99;100.00;52407.31;5088286;28;20196;-75
2020/12/22 10:06:19;;;;;;;0.67;0.50;;;;;;;-144.99;100.00;52484.78;5077535;28;20204;-75
2020/12/22 10:08:46;;;;;;;1.00;0.90;;;;;;;-144.99;100.00;52454.22;5082932;28;20231;-73
2020/12/22 10:11:12;;;;;;;1.00;0.60;;;;;;;-144.99;100.00;52492.94;5077124;28;20228;-74
2020/12/22 10:13:39;;;;;;;0.97;0.60;;;;;;;-144.99;100.00;52480.72;5078098;28;20315;-75
2020/12/22 10:16:07;;;;;;;0.97;0.70;;;;;;;-144.99;100.00;52460.31;5075617;28;20236;-75
2020/12/22 10:18:33;;;;;;;1.37;0.60;;;;;;;-144.99;100.00;52476.63;5078377;28;20222;-76
2020/12/22 10:21:07;;;;;;;0.80;0.47;;;;;;;-144.99;100.00;52492.94;5087865;28;20238;-72
2020/12/22 10:23:34;;;;;;;0.97;0.33;;;;;;;-144.99;100.00;52497.00;5078329;28;20289;-73
2020/12/22 10:26:02;;;;;;;0.60;0.30;;;;;;;-144.99;100.00;52476.63;5077392;28;20334;-73
2020/12/22 10:28:29;;;;;;;1.20;0.57;;;;;;;-144.99;100.00;52492.94;5075172;28;20363;-77
2020/12/22 10:30:56;;;;;;;4.00;1.67;;;;;;;-144.99;100.00;52529.63;5089138;28;20294;-75
2020/12/22 10:33:22;;;;;;;3.80;1.67;;;;;;;-144.99;100.00;52525.56;5084139;28;20221;-74
2020/12/22 10:35:48;;;;;;;2.00;1.10;;;;;;;-144.99;100.00;52517.41;5072044;28;20291;-74
2020/12/22 10:38:15;;;;;;;2.47;1.53;;;;;;;-144.99;100.00;52525.56;5072232;28;20398;-74
2020/12/22 10:40:41;;;;;;;3.10;1.50;;;;;;;-144.99;100.00;52501.09;5072054;28;20292;-74
2020/12/22 10:43:07;;;;;;;4.03;2.10;;;;;;;-144.99;100.00;52509.25;5088459;28;20251;-75
2020/12/22 10:45:33;;;;;;;5.97;3.43;;;;;;;-144.99;100.00;52468.47;5094292;28;20670;-75
2020/12/22 10:48:00;;;;;;;7.07;2.93;;;;;;;-144.99;100.00;52492.94;5085775;28;20292;-74
2020/12/22 10:50:27;;;;;;;6.30;2.70;;;;;;;-144.99;100.00;52488.84;5085244;28;20684;-73
2020/12/22 10:52:53;;;;;;;7.57;2.93;;;;;;;-144.99;100.00;52484.78;5071935;28;20605;-75
2020/12/22 10:55:20;;;;;;;8.70;3.10;;;;;;;-144.99;100.00;52501.09;5080716;28;20713;-74
2020/12/22 10:57:46;;;;;;;7.63;3.40;;;;;;;-144.99;100.00;52474.59;5072129;28;20346;-75
2020/12/22 11:00:13;;;;;;;7.83;2.97;;;;;;;-144.99;100.00;52474.59;5072010;28;20331;-75
2020/12/22 11:02:40;;;;;;;8.63;2.97;;;;;;;-144.99;100.00;52466.44;5071389;28;20263;-73
2020/12/22 11:05:07;;;;;;;7.23;3.07;;;;;;;-144.99;100.00;52488.84;5072023;28;20204;-75
2020/12/22 11:07:38;;;;;;;8.37;4.80;;;;;;;-144.99;100.00;52446.06;5071857;28;20555;-73
2020/12/22 11:10:04;;;;;;;11.87;4.77;;;;;;;-144.99;100.00;52497.00;5071195;28;20681;-74